Time;durP1;ratioP1;P1;durP2;ratioP2;P2;SDS_P1;SDS_P2;PMS_P1;PMS_P2;Temp;Humidity;BMP_temperature;BMP_pressure;BME280_temperature;BME280_humidity;BME280_pressure;Samples;Min_cycle;Max_cycle;Signal;HPM_P1;HPM_P2
2021/04/11 01:46:00;;;;;;;3.15;2.42;;;;;;;;;;10560695;28;20036;-86
2021/04/11 04:13:02;;;;;;;1.10;1.00;;;;;;;;;;10564894;28;20036;-87
2021/04/11 04:24:34;;;;;;;1.00;0.90;;;;;;;;;;10562547;28;20040;-86
2021/04/11 05:04:19;;;;;;;0.80;0.80;;;;;;;;;;10560470;28;20093;-86
2021/04/11 05:09:51;;;;;;;0.50;0.50;;;;;;;;;;10524208;28;20048;-86
2021/04/11 05:15:25;;;;;;;0.80;0.80;;;;;;;;;;10534910;28;20044;-86
2021/04/11 09:37:11;;;;;;;1.23;0.88;;;;;;;;;;10556772;28;20535;-86
2021/04/11 09:42:31;;;;;;;1.45;0.98;;;;;;;;;;10512040;28;20043;-85
2021/04/11 09:47:32;;;;;;;;;;;;;;;;;;10498374;28;20033;-86
2021/04/11 09:52:33;;;;;;;1.10;1.00;;;;;;;;;;10530981;28;19908;-85
2021/04/11 09:57:56;;;;;;;0.75;0.75;;;;;;;;;;10504412;28;20036;-85
2021/04/11 10:03:07;;;;;;;1.10;0.60;;;;;;;;;;10502201;28;20447;-85
2021/04/11 10:08:09;;;;;;;0.93;0.60;;;;;;;;;;10513427;28;20029;-86
2021/04/11 10:13:28;;;;;;;0.82;0.77;;;;;;;;;;10494067;28;20036;-86
2021/04/11 10:19:08;;;;;;;0.60;0.60;;;;;;;;;;10465471;28;20041;-86
2021/04/11 10:24:19;;;;;;;0.85;0.60;;;;;;;;;;10496994;28;20035;-86
2021/04/11 10:29:45;;;;;;;0.82;0.60;;;;;;;;;;10501914;28;20112;-86
2021/04/11 10:35:31;;;;;;;0.80;0.60;;;;;;;;;;10520070;28;20024;-87
2021/04/11 10:40:44;;;;;;;0.77;0.55;;;;;;;;;;10513860;28;20031;-86
2021/04/11 10:46:18;;;;;;;0.75;0.50;;;;;;;;;;10566233;28;20107;-85
2021/04/11 10:51:41;;;;;;;1.00;0.70;;;;;;;;;;10580078;28;20028;-86
2021/04/11 10:57:00;;;;;;;1.33;1.13;;;;;;;;;;10565947;28;20055;-86
2021/04/11 11:02:03;;;;;;;;;;;;;;;;;;10522034;28;20024;-86
2021/04/11 12:19:36;;;;;;;1.38;0.95;;;;;;;;;;10600849;28;20052;-85
2021/04/11 12:25:23;;;;;;;2.00;1.50;;;;;;;;;;10511985;28;20039;-85
2021/04/11 12:30:49;;;;;;;1.42;1.33;;;;;;;;;;10600014;28;20055;-85
2021/04/11 12:36:08;;;;;;;1.77;0.90;;;;;;;;;;10599720;28;20035;-85
2021/04/11 12:41:16;;;;;;;;;;;;;;;;;;10601559;28;20401;-86
2021/04/11 12:46:17;;;;;;;2.03;1.50;;;;;;;;;;10601060;28;20257;-86
2021/04/11 12:51:22;;;;;;;1.05;0.70;;;;;;;;;;10624058;28;20032;-86
2021/04/11 12:56:24;;;;;;;1.17;0.75;;;;;;;;;;10628137;28;20089;-85
2021/04/11 13:01:25;;;;;;;0.95;0.75;;;;;;;;;;10608632;28;20081;-86
2021/04/11 13:06:45;;;;;;;1.45;1.10;;;;;;;;;;10607440;28;20031;-85
2021/04/11 13:11:47;;;;;;;1.40;1.10;;;;;;;;;;10627668;28;20095;-86
2021/04/11 13:17:00;;;;;;;1.80;1.13;;;;;;;;;;10626046;28;20044;-85
2021/04/11 13:22:01;;;;;;;1.73;1.17;;;;;;;;;;10619033;28;20046;-87
2021/04/11 13:27:11;;;;;;;2.85;1.20;;;;;;;;;;10600602;28;20042;-86
2021/04/11 13:32:20;;;;;;;1.70;1.00;;;;;;;;;;10599918;28;20080;-85
2021/04/11 13:37:22;;;;;;;1.27;0.80;;;;;;;;;;10601802;28;20134;-86
2021/04/11 13:42:42;;;;;;;2.13;1.30;;;;;;;;;;10603501;28;20043;-87
2021/04/11 13:47:59;;;;;;;3.33;1.10;;;;;;;;;;10602904;28;20103;-87
2021/04/11 13:53:02;;;;;;;1.90;1.00;;;;;;;;;;10613406;28;20110;-86
2021/04/11 13:58:06;;;;;;;2.40;1.23;;;;;;;;;;10623706;28;20101;-87
2021/04/11 14:03:12;;;;;;;1.27;0.70;;;;;;;;;;10606983;28;20028;-86
2021/04/11 14:08:19;;;;;;;1.25;0.90;;;;;;;;;;10599781;28;20042;-87
2021/04/11 14:13:31;;;;;;;2.13;1.38;;;;;;;;;;10599409;28;20039;-87
2021/04/11 14:18:42;;;;;;;1.02;0.70;;;;;;;;;;10598933;28;20043;-85
2021/04/11 14:23:53;;;;;;;1.15;0.85;;;;;;;;;;10602343;28;20059;-86
2021/04/11 14:29:12;;;;;;;1.02;0.70;;;;;;;;;;10599119;28;20050;-88
2021/04/11 14:34:33;;;;;;;1.70;0.88;;;;;;;;;;10596820;28;20032;-86
2021/04/11 14:39:43;;;;;;;1.05;0.80;;;;;;;;;;10605355;28;20032;-86
2021/04/11 14:44:46;;;;;;;1.30;0.80;;;;;;;;;;10602225;28;20038;-86
2021/04/11 14:49:47;;;;;;;1.70;1.20;;;;;;;;;;10601038;28;20059;-85
2021/04/11 14:54:55;;;;;;;1.65;1.20;;;;;;;;;;10609505;28;20120;-86
2021/04/11 15:00:15;;;;;;;1.70;1.08;;;;;;;;;;10599364;28;20114;-85
2021/04/11 15:05:48;;;;;;;1.27;0.82;;;;;;;;;;10603584;28;20040;-87
2021/04/11 15:11:03;;;;;;;1.35;0.80;;;;;;;;;;10578400;28;20034;-87
2021/04/11 15:16:32;;;;;;;1.48;0.70;;;;;;;;;;10607053;28;20046;-86
2021/04/11 15:21:51;;;;;;;0.93;0.60;;;;;;;;;;10606054;27;20554;-87
2021/04/11 15:27:13;;;;;;;3.05;1.85;;;;;;;;;;10605382;28;20043;-87
2021/04/11 15:32:20;;;;;;;2.05;1.08;;;;;;;;;;10607977;28;20035;-86
2021/04/11 15:37:39;;;;;;;1.58;1.10;;;;;;;;;;10608587;28;20043;-86
2021/04/11 15:42:45;;;;;;;1.23;0.80;;;;;;;;;;10626562;28;20031;-85
2021/04/11 15:48:06;;;;;;;1.10;0.88;;;;;;;;;;10624280;28;20053;-85
2021/04/11 15:53:28;;;;;;;1.27;0.77;;;;;;;;;;10607153;28;20103;-85
2021/04/11 15:58:38;;;;;;;1.90;1.05;;;;;;;;;;10604584;28;20069;-86
2021/04/11 16:03:39;;;;;;;;;;;;;;;;;;10605164;28;20036;-85
2021/04/11 16:08:44;;;;;;;0.93;0.60;;;;;;;;;;10605598;28;19976;-86
2021/04/11 16:14:12;;;;;;;1.45;0.77;;;;;;;;;;10609817;28;20404;-86
2021/04/11 16:19:32;;;;;;;1.10;0.70;;;;;;;;;;10602528;28;20051;-86
2021/04/11 16:24:39;;;;;;;1.20;0.70;;;;;;;;;;10604787;28;20055;-85
2021/04/11 16:29:53;;;;;;;1.42;0.75;;;;;;;;;;10607456;28;20024;-86
2021/04/11 16:35:17;;;;;;;1.55;0.80;;;;;;;;;;10604623;28;20032;-86
2021/04/11 16:40:25;;;;;;;1.20;0.80;;;;;;;;;;10601012;28;20415;-86
2021/04/11 16:45:30;;;;;;;1.63;0.90;;;;;;;;;;10604483;28;20034;-86
2021/04/11 16:50:38;;;;;;;1.35;0.80;;;;;;;;;;10609522;28;20492;-85
2021/04/11 16:55:42;;;;;;;1.23;0.80;;;;;;;;;;10603933;28;20396;-85
2021/04/11 17:00:48;;;;;;;2.10;1.00;;;;;;;;;;10601496;28;20027;-85
2021/04/11 17:06:02;;;;;;;1.60;0.95;;;;;;;;;;10600552;28;20031;-85
2021/04/11 17:11:17;;;;;;;3.78;2.42;;;;;;;;;;10601448;28;20043;-85
2021/04/11 17:16:30;;;;;;;1.58;0.80;;;;;;;;;;10602240;28;20035;-86
2021/04/11 17:21:35;;;;;;;3.17;1.35;;;;;;;;;;10600240;28;20028;-85
2021/04/11 17:26:50;;;;;;;1.48;0.70;;;;;;;;;;10602052;28;20039;-85
2021/04/11 17:32:12;;;;;;;1.85;1.02;;;;;;;;;;10598973;28;20040;-85
2021/04/11 17:37:35;;;;;;;1.38;1.00;;;;;;;;;;10601136;28;20032;-85
2021/04/11 17:42:44;;;;;;;2.00;1.30;;;;;;;;;;10604626;27;20032;-85
2021/04/11 17:48:07;;;;;;;1.90;1.25;;;;;;;;;;10600121;28;20038;-86
2021/04/11 17:53:14;;;;;;;2.92;1.00;;;;;;;;;;10601288;28;20031;-85
2021/04/11 17:58:23;;;;;;;2.22;1.20;;;;;;;;;;10602059;28;20077;-86
2021/04/11 18:03:27;;;;;;;1.97;0.93;;;;;;;;;;10614694;28;20083;-85
2021/04/11 18:08:31;;;;;;;3.30;1.05;;;;;;;;;;10623763;28;20047;-85
2021/04/11 18:13:51;;;;;;;3.20;1.13;;;;;;;;;;10615802;28;20028;-85
2021/04/11 18:18:55;;;;;;;;;;;;;;;;;;10601707;28;20090;-85
2021/04/11 18:24:14;;;;;;;1.95;1.02;;;;;;;;;;10603631;28;19982;-86
2021/04/11 18:29:26;;;;;;;2.80;1.20;;;;;;;;;;10603232;28;20102;-86
2021/04/11 18:34:30;;;;;;;3.38;1.70;;;;;;;;;;10606806;28;20035;-86
2021/04/11 18:39:40;;;;;;;2.03;1.05;;;;;;;;;;10600910;28;20031;-87
2021/04/11 18:44:44;;;;;;;1.25;0.80;;;;;;;;;;10602969;28;20055;-86
2021/04/11 18:50:04;;;;;;;1.73;0.98;;;;;;;;;;10611503;28;20040;-87
2021/04/11 18:55:20;;;;;;;1.40;1.13;;;;;;;;;;10613950;28;20036;-87
2021/04/11 19:00:49;;;;;;;2.20;1.60;;;;;;;;;;10611721;28;20040;-86
2021/04/11 19:06:02;;;;;;;2.38;1.88;;;;;;;;;;10609462;28;20438;-87
2021/04/11 19:11:10;;;;;;;1.50;1.20;;;;;;;;;;10610068;28;20047;-87
2021/04/11 19:16:17;;;;;;;2.30;1.50;;;;;;;;;;10606960;28;20046;-87
2021/04/11 19:21:37;;;;;;;2.33;1.67;;;;;;;;;;10607291;28;20043;-87
2021/04/11 19:26:38;;;;;;;1.80;1.33;;;;;;;;;;10607409;28;20032;-86
2021/04/11 19:31:51;;;;;;;1.35;1.17;;;;;;;;;;10606587;28;20035;-87
2021/04/11 19:37:01;;;;;;;1.45;0.90;;;;;;;;;;10607903;28;20103;-86
2021/04/11 19:42:11;;;;;;;1.30;0.90;;;;;;;;;;10606637;28;20031;-86
2021/04/11 19:47:37;;;;;;;1.67;1.00;;;;;;;;;;10606222;28;20035;-86
2021/04/11 19:52:57;;;;;;;1.92;1.30;;;;;;;;;;10609923;28;20488;-86
2021/04/11 19:58:17;;;;;;;1.75;1.30;;;;;;;;;;10606701;28;20062;-86
2021/04/11 20:03:40;;;;;;;2.05;1.20;;;;;;;;;;10603645;28;20053;-87
2021/04/11 20:08:41;;;;;;;2.20;0.90;;;;;;;;;;10604391;28;20516;-86
2021/04/11 20:13:54;;;;;;;2.55;1.40;;;;;;;;;;10604030;28;20050;-86
2021/04/11 20:19:06;;;;;;;1.80;1.30;;;;;;;;;;10605885;28;20048;-85
